Аэропорт: Кадала. Чита

ICAO: UIAA

METAR:
2021-10-23 01:30:00
UIAA 230130Z 00000MPS 9999 NSC M03/M05 Q1021 R29/CLRD70 NOSIG RMK QFE707/0943
METAR:
2021-10-22 23:00:00
TAF UIAA 222300Z 2300/2324 29003G08MPS 9999 NSC TEMPO 2300/2302 3100 BR